Time;durP1;ratioP1;P1;durP2;ratioP2;P2;SDS_P1;SDS_P2;PMS_P1;PMS_P2;Temp;Humidity;BMP_temperature;BMP_pressure;BME280_temperature;BME280_humidity;BME280_pressure;Samples;Min_cycle;Max_cycle;Signal;HPM_P1;HPM_P2
2023/08/10 00:00:13;;;;;;;4.63;2.50;;;;;;;;;;5073566;28;20281;-83
2023/08/10 00:02:41;;;;;;;2.40;2.20;;;;;;;;;;5071291;28;20237;-85
2023/08/10 00:05:09;;;;;;;6.23;2.60;;;;;;;;;;5072686;28;20731;-84
2023/08/10 00:07:37;;;;;;;2.47;2.27;;;;;;;;;;5072580;28;20291;-83
2023/08/10 00:10:04;;;;;;;2.90;2.30;;;;;;;;;;5073279;28;20209;-83
2023/08/10 00:12:32;;;;;;;2.33;2.13;;;;;;;;;;5072745;28;20233;-83
2023/08/10 00:15:05;;;;;;;3.17;2.27;;;;;;;;;;5073606;28;20263;-83
2023/08/10 00:17:33;;;;;;;3.90;2.20;;;;;;;;;;5072908;28;20235;-84
2023/08/10 00:20:00;;;;;;;3.27;2.17;;;;;;;;;;5073397;28;20636;-84
2023/08/10 00:22:27;;;;;;;2.30;2.10;;;;;;;;;;5072740;28;20256;-84
2023/08/10 00:24:54;;;;;;;3.93;2.40;;;;;;;;;;5073642;28;20189;-84
2023/08/10 00:27:23;;;;;;;2.30;2.20;;;;;;;;;;5072524;28;20236;-83
2023/08/10 00:29:51;;;;;;;2.40;2.20;;;;;;;;;;5073440;28;20211;-83
2023/08/10 00:32:19;;;;;;;3.27;2.30;;;;;;;;;;5072467;28;20641;-83
2023/08/10 00:34:47;;;;;;;5.63;3.00;;;;;;;;;;5072793;28;20205;-83
2023/08/10 00:37:15;;;;;;;2.80;2.50;;;;;;;;;;5071970;28;20233;-83
2023/08/10 00:39:42;;;;;;;2.83;2.50;;;;;;;;;;5072968;28;20213;-83
2023/08/10 00:42:10;;;;;;;2.73;2.53;;;;;;;;;;5072848;28;20245;-83
2023/08/10 00:44:37;;;;;;;3.73;2.53;;;;;;;;;;5077396;28;20209;-83
2023/08/10 00:47:05;;;;;;;2.57;2.37;;;;;;;;;;5076926;28;20243;-83
2023/08/10 00:49:33;;;;;;;4.53;2.40;;;;;;;;;;5077297;28;20548;-84
2023/08/10 00:52:00;;;;;;;2.60;2.40;;;;;;;;;;5077040;28;20236;-84
2023/08/10 00:54:27;;;;;;;3.53;2.37;;;;;;;;;;5076494;28;20206;-84
2023/08/10 00:56:54;;;;;;;6.57;2.60;;;;;;;;;;5076829;28;20232;-83
2023/08/10 00:59:22;;;;;;;3.70;2.40;;;;;;;;;;5076906;28;20213;-84
2023/08/10 01:01:49;;;;;;;3.00;2.33;;;;;;;;;;5076266;28;20265;-84
2023/08/10 01:04:17;;;;;;;6.00;2.50;;;;;;;;;;5073277;28;20288;-83
2023/08/10 01:06:48;;;;;;;2.70;2.50;;;;;;;;;;5060597;28;20238;-83
2023/08/10 01:09:20;;;;;;;2.40;2.20;;;;;;;;;;5065608;28;20193;-84
2023/08/10 01:11:50;;;;;;;2.43;2.20;;;;;;;;;;5076431;28;20237;-83
2023/08/10 01:14:21;;;;;;;2.60;2.40;;;;;;;;;;5077399;28;20208;-84
2023/08/10 01:16:50;;;;;;;2.43;2.23;;;;;;;;;;5076669;28;20236;-84
2023/08/10 01:19:23;;;;;;;3.17;2.33;;;;;;;;;;5076947;28;20212;-84
2023/08/10 01:21:53;;;;;;;5.27;2.10;;;;;;;;;;5076113;28;20237;-84
2023/08/10 01:24:25;;;;;;;2.70;2.50;;;;;;;;;;5076842;28;20559;-84
2023/08/10 01:26:55;;;;;;;2.53;2.27;;;;;;;;;;5075913;28;20237;-84
2023/08/10 01:29:23;;;;;;;2.70;2.50;;;;;;;;;;5077026;28;20232;-83
2023/08/10 01:31:50;;;;;;;4.70;2.67;;;;;;;;;;5075506;28;20233;-84
2023/08/10 01:34:17;;;;;;;5.80;3.93;;;;;;;;;;5076510;28;20212;-84
2023/08/10 01:36:44;;;;;;;5.63;2.70;;;;;;;;;;5076098;28;20233;-84
2023/08/10 01:39:11;;;;;;;2.77;2.40;;;;;;;;;;5076725;28;20209;-83
2023/08/10 01:41:38;;;;;;;3.40;2.60;;;;;;;;;;5075629;28;20244;-84
2023/08/10 01:44:07;;;;;;;5.40;2.60;;;;;;;;;;5076085;28;20205;-84
2023/08/10 01:46:36;;;;;;;3.33;2.60;;;;;;;;;;5075155;28;20721;-82
2023/08/10 01:49:03;;;;;;;2.60;2.40;;;;;;;;;;5075250;28;20217;-83
2023/08/10 01:51:31;;;;;;;5.53;2.63;;;;;;;;;;5074583;28;20237;-83
2023/08/10 01:53:58;;;;;;;2.70;2.50;;;;;;;;;;5074991;28;20206;-84
2023/08/10 01:56:26;;;;;;;4.30;2.87;;;;;;;;;;5075092;28;20240;-84
2023/08/10 01:58:53;;;;;;;3.30;3.00;;;;;;;;;;5075863;28;20209;-84
2023/08/10 02:01:21;;;;;;;3.77;2.60;;;;;;;;;;5075475;28;20225;-84
2023/08/10 02:03:48;;;;;;;3.63;2.63;;;;;;;;;;5075609;28;20217;-84
2023/08/10 02:06:15;;;;;;;3.00;2.80;;;;;;;;;;5075308;28;20204;-84
2023/08/10 02:08:42;;;;;;;5.00;2.70;;;;;;;;;;5075946;28;20216;-83
2023/08/10 02:11:09;;;;;;;3.77;2.60;;;;;;;;;;5075193;28;20206;-84
2023/08/10 02:13:37;;;;;;;2.70;2.50;;;;;;;;;;5075792;28;20569;-83
2023/08/10 02:16:04;;;;;;;2.80;2.60;;;;;;;;;;5075268;28;20561;-84
2023/08/10 02:18:32;;;;;;;3.00;2.70;;;;;;;;;;5075757;28;20198;-83
2023/08/10 02:21:00;;;;;;;2.93;2.73;;;;;;;;;;5074982;28;20201;-84
2023/08/10 02:23:29;;;;;;;5.13;2.83;;;;;;;;;;5075512;28;20785;-84
2023/08/10 02:25:56;;;;;;;3.43;2.70;;;;;;;;;;5075828;28;20208;-84
2023/08/10 02:28:23;;;;;;;3.20;2.70;;;;;;;;;;5075231;28;20241;-84
2023/08/10 02:30:50;;;;;;;5.13;4.60;;;;;;;;;;5075680;28;20212;-84
2023/08/10 02:33:17;;;;;;;3.03;2.50;;;;;;;;;;5074626;28;20282;-83
2023/08/10 02:35:45;;;;;;;3.40;2.67;;;;;;;;;;5075627;28;20220;-84
2023/08/10 02:38:12;;;;;;;4.03;3.00;;;;;;;;;;5074645;28;20240;-84
2023/08/10 02:40:39;;;;;;;3.50;3.20;;;;;;;;;;5075028;28;20209;-84
2023/08/10 02:43:06;;;;;;;2.97;2.77;;;;;;;;;;5074488;28;20233;-83
2023/08/10 02:45:33;;;;;;;3.37;2.77;;;;;;;;;;5075086;28;20209;-85
2023/08/10 02:48:00;;;;;;;3.07;2.77;;;;;;;;;;5073376;28;20240;-84
2023/08/10 02:50:27;;;;;;;2.70;2.50;;;;;;;;;;5073952;28;20205;-83
2023/08/10 02:52:56;;;;;;;3.33;2.63;;;;;;;;;;5073842;28;20598;-84
2023/08/10 02:55:23;;;;;;;2.77;2.57;;;;;;;;;;5075027;28;20263;-84
2023/08/10 02:57:50;;;;;;;2.60;2.40;;;;;;;;;;5074129;28;20247;-84
2023/08/10 03:00:17;;;;;;;2.47;2.30;;;;;;;;;;5074983;28;20201;-84
2023/08/10 03:02:44;;;;;;;4.40;2.77;;;;;;;;;;5074086;28;20229;-83
2023/08/10 03:05:12;;;;;;;2.57;2.33;;;;;;;;;;5074558;28;20205;-84
2023/08/10 03:07:39;;;;;;;2.63;2.43;;;;;;;;;;5073540;28;20241;-84
2023/08/10 03:10:08;;;;;;;2.70;2.50;;;;;;;;;;5074844;28;20201;-83
2023/08/10 03:12:35;;;;;;;3.27;2.47;;;;;;;;;;5074167;28;20225;-84
2023/08/10 03:15:05;;;;;;;2.87;2.57;;;;;;;;;;5074324;28;20671;-84
2023/08/10 03:17:32;;;;;;;2.97;2.43;;;;;;;;;;5074020;28;20722;-83
2023/08/10 03:19:59;;;;;;;3.73;2.73;;;;;;;;;;5074637;28;20208;-84
2023/08/10 03:22:27;;;;;;;3.00;2.50;;;;;;;;;;5073885;28;20236;-84
2023/08/10 03:24:54;;;;;;;4.47;2.57;;;;;;;;;;5074376;28;20212;-84
2023/08/10 03:27:23;;;;;;;3.43;2.60;;;;;;;;;;5074077;28;20602;-83
2023/08/10 03:29:50;;;;;;;3.50;3.20;;;;;;;;;;5074403;28;20201;-84
2023/08/10 03:32:17;;;;;;;3.70;2.40;;;;;;;;;;5073586;28;20232;-84
2023/08/10 03:34:44;;;;;;;2.80;2.60;;;;;;;;;;5074349;28;20212;-83
2023/08/10 03:37:11;;;;;;;2.80;2.60;;;;;;;;;;5073866;28;20265;-83
2023/08/10 03:39:38;;;;;;;4.13;3.33;;;;;;;;;;5074214;28;20204;-84
2023/08/10 03:42:05;;;;;;;3.37;3.07;;;;;;;;;;5072818;28;20228;-83
2023/08/10 03:44:34;;;;;;;3.20;2.77;;;;;;;;;;5074042;28;20205;-82
2023/08/10 03:47:01;;;;;;;3.27;2.97;;;;;;;;;;5072622;28;20240;-82
2023/08/10 03:49:28;;;;;;;3.20;2.90;;;;;;;;;;5072295;28;20206;-82
2023/08/10 03:51:55;;;;;;;4.73;2.80;;;;;;;;;;5072655;28;20713;-83
2023/08/10 03:54:22;;;;;;;3.07;2.87;;;;;;;;;;5073674;28;20209;-84
2023/08/10 03:56:50;;;;;;;4.17;3.40;;;;;;;;;;5073913;28;20244;-83
2023/08/10 03:59:17;;;;;;;2.90;2.70;;;;;;;;;;5074297;28;20205;-84
2023/08/10 04:01:45;;;;;;;4.17;2.87;;;;;;;;;;5073523;28;20233;-84
2023/08/10 04:04:12;;;;;;;3.97;2.77;;;;;;;;;;5073972;28;20205;-84
2023/08/10 04:06:40;;;;;;;4.70;2.70;;;;;;;;;;5067121;28;20264;-84
2023/08/10 04:09:09;;;;;;;3.23;2.90;;;;;;;;;;5074010;28;20202;-84
2023/08/10 04:11:36;;;;;;;2.77;2.57;;;;;;;;;;5073271;28;20311;-84
2023/08/10 04:14:03;;;;;;;3.30;3.00;;;;;;;;;;5074225;28;20202;-84
2023/08/10 04:16:31;;;;;;;3.13;2.93;;;;;;;;;;5073662;28;20710;-84
2023/08/10 04:18:59;;;;;;;5.73;3.13;;;;;;;;;;5077616;28;20565;-84
2023/08/10 04:21:26;;;;;;;3.90;2.97;;;;;;;;;;5078027;28;20240;-84
2023/08/10 04:23:53;;;;;;;3.50;3.20;;;;;;;;;;5078077;28;20740;-84
2023/08/10 04:26:21;;;;;;;6.70;3.33;;;;;;;;;;5077788;28;20588;-83
2023/08/10 04:28:48;;;;;;;3.43;2.83;;;;;;;;;;5078545;28;20205;-84
2023/08/10 04:31:15;;;;;;;3.73;3.33;;;;;;;;;;5078028;28;20209;-84
2023/08/10 04:33:42;;;;;;;2.97;2.77;;;;;;;;;;5078354;28;20209;-84
2023/08/10 04:36:10;;;;;;;3.53;3.10;;;;;;;;;;5077795;28;20201;-84
2023/08/10 04:38:37;;;;;;;3.73;2.63;;;;;;;;;;5078485;28;20201;-84
2023/08/10 04:41:04;;;;;;;4.17;3.13;;;;;;;;;;5077863;28;20200;-84
2023/08/10 04:43:31;;;;;;;3.80;2.97;;;;;;;;;;5078081;28;20636;-83
2023/08/10 04:45:58;;;;;;;3.30;2.80;;;;;;;;;;5077557;28;20212;-83
2023/08/10 04:48:25;;;;;;;3.00;2.80;;;;;;;;;;5076254;28;20229;-84
2023/08/10 04:50:52;;;;;;;5.30;3.33;;;;;;;;;;5076664;28;20212;-85
2023/08/10 04:53:21;;;;;;;5.20;3.37;;;;;;;;;;5077255;28;20233;-84
2023/08/10 04:55:48;;;;;;;3.87;3.57;;;;;;;;;;5077453;28;20198;-84
2023/08/10 04:58:15;;;;;;;4.67;3.30;;;;;;;;;;5077562;28;20243;-84
2023/08/10 05:00:42;;;;;;;5.43;3.43;;;;;;;;;;5077692;28;20213;-84
2023/08/10 05:03:10;;;;;;;3.60;3.17;;;;;;;;;;5076709;28;20700;-84
2023/08/10 05:05:39;;;;;;;5.73;3.50;;;;;;;;;;5077309;28;20583;-83
2023/08/10 05:08:07;;;;;;;5.70;4.87;;;;;;;;;;5076790;28;20241;-85
2023/08/10 05:10:35;;;;;;;4.37;3.40;;;;;;;;;;5077468;28;20205;-85
2023/08/10 05:13:02;;;;;;;3.70;3.40;;;;;;;;;;5076963;28;20240;-85
2023/08/10 05:15:31;;;;;;;3.63;3.33;;;;;;;;;;5077247;28;20205;-84
2023/08/10 05:17:58;;;;;;;5.17;3.80;;;;;;;;;;5076557;28;20714;-85
2023/08/10 05:20:25;;;;;;;3.57;3.27;;;;;;;;;;5077253;28;20845;-85
2023/08/10 05:22:52;;;;;;;3.70;3.40;;;;;;;;;;5076606;28;20714;-85
2023/08/10 05:25:19;;;;;;;4.30;3.40;;;;;;;;;;5077073;28;20754;-84
2023/08/10 05:27:48;;;;;;;8.03;3.60;;;;;;;;;;5076579;28;20233;-85
2023/08/10 05:30:15;;;;;;;4.20;3.80;;;;;;;;;;5077004;28;20288;-85
2023/08/10 05:32:43;;;;;;;3.93;3.50;;;;;;;;;;5076535;28;20229;-84
2023/08/10 05:35:11;;;;;;;5.37;3.87;;;;;;;;;;5077163;28;20247;-85
2023/08/10 05:37:39;;;;;;;5.90;3.73;;;;;;;;;;5076608;28;20225;-85
2023/08/10 05:40:09;;;;;;;4.90;3.40;;;;;;;;;;5077162;28;20216;-85
2023/08/10 05:42:36;;;;;;;4.17;3.77;;;;;;;;;;5056373;28;20217;-85
2023/08/10 05:45:06;;;;;;;4.23;3.67;;;;;;;;;;5056880;28;20224;-84
2023/08/10 05:47:33;;;;;;;4.03;3.60;;;;;;;;;;5056084;28;20238;-84
2023/08/10 05:50:00;;;;;;;7.23;4.30;;;;;;;;;;5055633;28;20210;-84
2023/08/10 05:52:27;;;;;;;5.20;4.20;;;;;;;;;;5054694;28;20257;-86
2023/08/10 05:54:54;;;;;;;4.37;3.97;;;;;;;;;;5056514;28;20206;-85
2023/08/10 05:57:21;;;;;;;4.77;4.33;;;;;;;;;;5056288;28;20245;-86
2023/08/10 05:59:49;;;;;;;5.90;3.90;;;;;;;;;;5056901;28;20309;-86
2023/08/10 06:02:17;;;;;;;4.10;3.70;;;;;;;;;;5056190;28;20234;-86
2023/08/10 06:04:45;;;;;;;4.73;3.37;;;;;;;;;;5056797;28;20216;-86
2023/08/10 06:07:12;;;;;;;8.07;4.23;;;;;;;;;;5055926;28;20240;-86
2023/08/10 06:09:39;;;;;;;3.83;3.53;;;;;;;;;;5056717;28;20198;-85
2023/08/10 06:12:07;;;;;;;6.47;4.10;;;;;;;;;;5056030;28;20233;-86
2023/08/10 06:14:34;;;;;;;8.90;4.20;;;;;;;;;;5056513;28;20574;-86
2023/08/10 06:17:01;;;;;;;4.67;4.17;;;;;;;;;;5055460;28;20340;-85
2023/08/10 06:19:29;;;;;;;3.93;3.63;;;;;;;;;;5056086;28;20214;-84
2023/08/10 06:21:57;;;;;;;4.67;4.10;;;;;;;;;;5055575;28;20232;-87
2023/08/10 06:24:24;;;;;;;5.93;3.40;;;;;;;;;;5055411;28;20276;-84
2023/08/10 06:26:51;;;;;;;4.27;3.87;;;;;;;;;;5071064;28;20233;-84
2023/08/10 06:29:18;;;;;;;4.07;3.67;;;;;;;;;;5075864;28;20205;-84
2023/08/10 06:31:48;;;;;;;5.27;3.50;;;;;;;;;;5075345;28;20256;-84
2023/08/10 06:34:15;;;;;;;4.30;3.40;;;;;;;;;;5075751;28;20197;-84
2023/08/10 06:36:43;;;;;;;4.60;3.67;;;;;;;;;;5070614;28;20768;-83
2023/08/10 06:39:12;;;;;;;4.00;3.70;;;;;;;;;;5069589;28;20197;-84
2023/08/10 06:41:39;;;;;;;5.33;3.53;;;;;;;;;;5065105;28;20239;-83
2023/08/10 06:44:07;;;;;;;5.03;3.90;;;;;;;;;;5063143;28;20218;-83
2023/08/10 06:46:34;;;;;;;5.63;3.70;;;;;;;;;;5066016;28;20292;-83
2023/08/10 06:49:01;;;;;;;4.97;3.37;;;;;;;;;;5063612;28;20198;-83
2023/08/10 06:51:28;;;;;;;4.37;3.47;;;;;;;;;;5062290;28;20237;-83
2023/08/10 06:53:57;;;;;;;4.27;3.53;;;;;;;;;;5061481;28;20220;-83
2023/08/10 06:56:24;;;;;;;5.40;3.80;;;;;;;;;;5066464;28;20237;-83
2023/08/10 06:58:51;;;;;;;4.60;4.20;;;;;;;;;;5065709;28;20209;-83
2023/08/10 07:01:19;;;;;;;6.77;3.60;;;;;;;;;;5062188;28;21113;-84
2023/08/10 07:03:46;;;;;;;3.63;3.33;;;;;;;;;;5068721;28;20220;-84
2023/08/10 07:06:14;;;;;;;5.40;3.73;;;;;;;;;;5065374;28;20300;-83
2023/08/10 07:08:41;;;;;;;3.80;3.13;;;;;;;;;;5059936;28;20673;-83
2023/08/10 07:11:09;;;;;;;3.77;2.97;;;;;;;;;;5063320;28;20202;-84
2023/08/10 07:13:36;;;;;;;4.90;3.70;;;;;;;;;;5062717;28;20198;-84
2023/08/10 07:16:03;;;;;;;5.83;3.50;;;;;;;;;;5064043;28;20567;-83
2023/08/10 07:18:31;;;;;;;3.47;3.00;;;;;;;;;;5061335;28;20201;-82
2023/08/10 07:20:58;;;;;;;5.33;3.37;;;;;;;;;;5062065;28;20285;-82
2023/08/10 07:23:27;;;;;;;3.20;2.90;;;;;;;;;;5064454;28;20309;-82
2023/08/10 07:25:55;;;;;;;3.53;3.23;;;;;;;;;;5065564;28;20205;-83
2023/08/10 07:28:24;;;;;;;4.17;3.13;;;;;;;;;;5070533;28;20232;-85
2023/08/10 07:30:51;;;;;;;7.97;3.10;;;;;;;;;;5070270;28;20226;-83
2023/08/10 07:33:18;;;;;;;2.90;2.70;;;;;;;;;;5063776;28;20311;-84
2023/08/10 07:35:45;;;;;;;3.50;3.20;;;;;;;;;;5072934;28;20216;-83
2023/08/10 07:38:12;;;;;;;5.70;2.97;;;;;;;;;;5073220;28;20259;-84
2023/08/10 07:40:39;;;;;;;5.23;3.03;;;;;;;;;;5070214;28;20229;-84
2023/08/10 07:43:07;;;;;;;3.47;3.13;;;;;;;;;;5065368;28;20241;-84
2023/08/10 07:45:37;;;;;;;3.00;2.70;;;;;;;;;;5067468;28;20253;-84
2023/08/10 07:48:04;;;;;;;3.20;2.90;;;;;;;;;;5071901;28;20259;-86
2023/08/10 07:50:32;;;;;;;3.87;3.20;;;;;;;;;;5069114;28;20202;-85
2023/08/10 07:53:03;;;;;;;3.27;2.93;;;;;;;;;;5067136;28;20229;-84
2023/08/10 07:55:30;;;;;;;4.30;2.90;;;;;;;;;;5064363;28;20655;-84
2023/08/10 07:57:58;;;;;;;3.97;3.13;;;;;;;;;;5062515;28;20237;-84
2023/08/10 08:00:25;;;;;;;7.87;3.27;;;;;;;;;;5067342;28;20209;-85
2023/08/10 08:02:54;;;;;;;4.40;3.50;;;;;;;;;;5073097;28;20233;-84
2023/08/10 08:05:22;;;;;;;8.10;3.10;;;;;;;;;;5057093;28;20213;-85
2023/08/10 08:07:49;;;;;;;3.30;3.00;;;;;;;;;;5054844;28;20265;-85
2023/08/10 08:10:16;;;;;;;5.97;2.97;;;;;;;;;;5074068;28;20201;-84
2023/08/10 08:12:43;;;;;;;7.07;3.30;;;;;;;;;;5072510;28;20772;-84
2023/08/10 08:15:16;;;;;;;3.73;2.77;;;;;;;;;;5073028;28;20217;-84
2023/08/10 08:18:02;;;;;;;3.60;2.93;;;;;;;;;;5058672;28;20237;-83
2023/08/10 08:20:31;;;;;;;3.80;2.80;;;;;;;;;;5056906;28;20230;-84
2023/08/10 08:22:58;;;;;;;3.20;2.80;;;;;;;;;;5064971;28;20225;-84
2023/08/10 08:25:25;;;;;;;3.50;3.20;;;;;;;;;;5065756;28;20212;-85
2023/08/10 08:27:51;;;;;;;2.75;2.55;;;;;;;;;;5072735;28;20245;-83
2023/08/10 08:30:18;;;;;;;3.15;2.83;;;;;;;;;;5073225;28;20248;-83
2023/08/10 08:32:45;;;;;;;2.72;2.53;;;;;;;;;;5064986;28;20234;-83
2023/08/10 08:35:12;;;;;;;3.17;2.88;;;;;;;;;;5061426;28;20198;-82
2023/08/10 08:37:41;;;;;;;2.80;2.60;;;;;;;;;;5063063;28;20244;-83
2023/08/10 08:40:08;;;;;;;4.05;2.30;;;;;;;;;;5065757;28;20228;-84
2023/08/10 08:42:35;;;;;;;2.80;2.55;;;;;;;;;;5061399;28;20733;-83
2023/08/10 08:45:03;;;;;;;2.55;2.30;;;;;;;;;;5063096;28;20229;-84
2023/08/10 08:47:30;;;;;;;4.28;2.45;;;;;;;;;;5062950;28;20761;-83
2023/08/10 08:49:58;;;;;;;2.65;2.40;;;;;;;;;;5056685;28;20202;-85
2023/08/10 08:52:25;;;;;;;5.40;2.90;;;;;;;;;;5067689;28;20226;-83
2023/08/10 08:54:54;;;;;;;3.53;2.60;;;;;;;;;;5062642;28;20218;-84
2023/08/10 08:57:21;;;;;;;4.28;2.40;;;;;;;;;;5071213;28;20236;-82
2023/08/10 08:59:48;;;;;;;3.70;2.70;;;;;;;;;;5064803;28;20627;-85
2023/08/10 09:02:16;;;;;;;2.50;2.30;;;;;;;;;;5063390;28;20233;-84
2023/08/10 09:04:43;;;;;;;2.72;2.50;;;;;;;;;;5066189;28;20233;-87
2023/08/10 09:07:10;;;;;;;2.33;2.13;;;;;;;;;;5074598;28;20323;-84
2023/08/10 09:09:37;;;;;;;5.93;2.50;;;;;;;;;;5075255;28;20224;-83
2023/08/10 09:12:19;;;;;;;3.35;2.35;;;;;;;;;;5057449;28;20249;-80
2023/08/10 09:15:01;;;;;;;3.00;2.20;;;;;;;;;;5062206;28;20213;-82
2023/08/10 09:17:28;;;;;;;2.88;2.40;;;;;;;;;;5059705;28;20331;-83
2023/08/10 09:19:55;;;;;;;3.05;1.98;;;;;;;;;;5066479;28;20204;-82
2023/08/10 09:22:28;;;;;;;25.90;4.25;;;;;;;;;;5068288;28;20230;-82
2023/08/10 09:24:55;;;;;;;2.67;2.10;;;;;;;;;;5064219;28;20288;-83
2023/08/10 09:27:25;;;;;;;2.47;2.17;;;;;;;;;;5065185;28;20249;-83
2023/08/10 09:29:56;;;;;;;1.73;1.63;;;;;;;;;;5063889;28;20255;-82
2023/08/10 09:32:23;;;;;;;4.00;1.80;;;;;;;;;;5064138;28;20240;-83
2023/08/10 09:34:51;;;;;;;2.17;1.98;;;;;;;;;;5067666;28;20671;-82
2023/08/10 09:37:18;;;;;;;2.58;2.10;;;;;;;;;;5065470;28;20261;-83
2023/08/10 09:39:45;;;;;;;3.80;2.22;;;;;;;;;;5063204;28;20546;-82
2023/08/10 09:42:12;;;;;;;2.10;1.90;;;;;;;;;;5058615;28;20715;-82
2023/08/10 09:44:46;;;;;;;3.47;1.85;;;;;;;;;;5061480;28;20594;-84
2023/08/10 09:47:15;;;;;;;2.58;1.95;;;;;;;;;;5060966;28;20253;-83
2023/08/10 09:49:46;;;;;;;2.00;1.75;;;;;;;;;;5072551;28;20252;-84
2023/08/10 09:52:13;;;;;;;2.08;1.75;;;;;;;;;;5075098;28;20237;-84
2023/08/10 09:54:40;;;;;;;4.10;2.33;;;;;;;;;;5074983;28;20662;-83
2023/08/10 09:57:07;;;;;;;2.28;1.80;;;;;;;;;;5068673;28;20626;-84
2023/08/10 09:59:34;;;;;;;1.80;1.50;;;;;;;;;;5055941;28;20202;-84
2023/08/10 10:02:02;;;;;;;2.83;1.60;;;;;;;;;;5055989;28;20727;-84
2023/08/10 10:04:33;;;;;;;2.13;1.67;;;;;;;;;;5055200;28;20222;-84
2023/08/10 10:07:01;;;;;;;2.13;1.92;;;;;;;;;;5056168;28;20269;-84
2023/08/10 10:09:29;;;;;;;2.30;1.73;;;;;;;;;;5067137;28;20640;-84
2023/08/10 10:11:58;;;;;;;2.25;1.90;;;;;;;;;;5065537;28;20257;-83
2023/08/10 10:14:25;;;;;;;2.08;1.75;;;;;;;;;;5074833;28;20205;-83
2023/08/10 10:16:53;;;;;;;3.20;1.90;;;;;;;;;;5073013;28;20261;-83
2023/08/10 10:19:20;;;;;;;1.88;1.70;;;;;;;;;;5063324;28;20218;-84
2023/08/10 10:21:48;;;;;;;2.80;2.33;;;;;;;;;;5067574;28;20233;-83
2023/08/10 10:24:19;;;;;;;2.15;1.75;;;;;;;;;;5072841;28;20225;-83
2023/08/10 10:26:58;;;;;;;3.05;1.67;;;;;;;;;;5061464;28;20238;-83
2023/08/10 10:29:35;;;;;;;3.47;1.73;;;;;;;;;;5073195;28;20624;-83
2023/08/10 10:32:06;;;;;;;3.20;1.65;;;;;;;;;;5066176;28;20232;-83
2023/08/10 10:34:34;;;;;;;3.50;1.58;;;;;;;;;;5074582;28;20228;-83
2023/08/10 10:37:08;;;;;;;1.55;1.38;;;;;;;;;;5067976;28;20233;-82
2023/08/10 10:39:36;;;;;;;5.43;2.40;;;;;;;;;;5059966;28;20212;-83
2023/08/10 10:42:03;;;;;;;3.15;1.70;;;;;;;;;;5071668;28;20783;-83
2023/08/10 10:44:48;;;;;;;1.85;1.73;;;;;;;;;;5067470;28;20255;-82
2023/08/10 10:47:17;;;;;;;1.40;1.30;;;;;;;;;;5057367;28;20236;-83
2023/08/10 10:49:54;;;;;;;2.83;1.70;;;;;;;;;;5065127;28;20261;-83
2023/08/10 10:55:14;;;;;;;1.80;1.70;;;;;;;;;;5088146;27;20566;-82
2023/08/10 10:57:41;;;;;;;2.83;1.67;;;;;;;;;;5073633;27;20244;-82
2023/08/10 11:00:10;;;;;;;1.65;1.55;;;;;;;;;;5049504;28;20214;-82
2023/08/10 11:02:37;;;;;;;1.50;1.40;;;;;;;;;;5044976;28;20229;-80
2023/08/10 11:05:04;;;;;;;1.65;1.55;;;;;;;;;;5047946;28;20233;-80
2023/08/10 11:07:31;;;;;;;1.55;1.45;;;;;;;;;;5047572;28;20240;-80
2023/08/10 11:10:04;;;;;;;1.67;1.58;;;;;;;;;;5048117;28;20209;-79
2023/08/10 11:12:34;;;;;;;1.63;1.52;;;;;;;;;;5030451;28;20260;-80
2023/08/10 11:15:01;;;;;;;1.45;1.35;;;;;;;;;;5028644;28;20235;-80
2023/08/10 11:17:29;;;;;;;2.80;1.63;;;;;;;;;;5027748;28;20238;-79
2023/08/10 11:19:56;;;;;;;1.38;1.27;;;;;;;;;;5034760;28;20198;-80
2023/08/10 11:22:23;;;;;;;1.55;1.38;;;;;;;;;;5047378;28;20238;-80
2023/08/10 11:24:50;;;;;;;2.35;1.67;;;;;;;;;;5047818;28;20202;-80
2023/08/10 11:27:17;;;;;;;2.70;1.55;;;;;;;;;;5042994;28;20240;-80
2023/08/10 11:29:46;;;;;;;1.58;1.48;;;;;;;;;;5046500;28;20210;-81
2023/08/10 11:32:13;;;;;;;1.60;1.50;;;;;;;;;;5043970;28;20720;-83
2023/08/10 11:34:40;;;;;;;3.30;1.63;;;;;;;;;;5041510;28;20226;-82
2023/08/10 11:37:07;;;;;;;2.38;1.60;;;;;;;;;;5044620;28;20273;-82
2023/08/10 11:39:36;;;;;;;1.70;1.60;;;;;;;;;;5041132;28;20203;-82
2023/08/10 11:42:03;;;;;;;1.23;1.20;;;;;;;;;;5028851;28;20716;-82
2023/08/10 11:44:32;;;;;;;3.35;1.60;;;;;;;;;;5029967;28;20242;-82
2023/08/10 11:47:00;;;;;;;1.63;1.33;;;;;;;;;;5029454;28;20230;-82
2023/08/10 11:49:31;;;;;;;1.85;1.55;;;;;;;;;;5029751;28;20215;-82
2023/08/10 11:52:03;;;;;;;2.22;1.52;;;;;;;;;;5029660;28;20234;-82
2023/08/10 11:54:31;;;;;;;1.50;1.40;;;;;;;;;;5029012;28;20785;-83
2023/08/10 11:56:58;;;;;;;2.58;1.65;;;;;;;;;;5029255;28;20235;-82
2023/08/10 11:59:25;;;;;;;1.50;1.40;;;;;;;;;;5029653;28;20619;-82
2023/08/10 12:01:53;;;;;;;2.17;1.70;;;;;;;;;;5029374;28;20234;-82
2023/08/10 12:04:22;;;;;;;2.05;1.60;;;;;;;;;;5028548;28;20207;-81
2023/08/10 12:06:49;;;;;;;2.15;1.50;;;;;;;;;;5015144;28;20231;-82
2023/08/10 12:09:17;;;;;;;2.80;1.42;;;;;;;;;;5016145;28;20632;-81
2023/08/10 12:11:47;;;;;;;2.97;1.48;;;;;;;;;;5015207;28;20257;-82
2023/08/10 12:14:14;;;;;;;1.60;1.50;;;;;;;;;;5015119;28;20282;-82
2023/08/10 12:16:41;;;;;;;1.58;1.48;;;;;;;;;;5014751;28;20258;-83
2023/08/10 12:19:08;;;;;;;1.52;1.42;;;;;;;;;;5015446;28;20707;-83
2023/08/10 12:21:37;;;;;;;2.88;1.40;;;;;;;;;;5015386;28;20230;-83
2023/08/10 12:24:04;;;;;;;1.50;1.40;;;;;;;;;;5014658;28;20211;-82
2023/08/10 12:26:31;;;;;;;1.90;1.40;;;;;;;;;;5015094;28;20633;-83
2023/08/10 12:28:58;;;;;;;2.17;1.50;;;;;;;;;;5015503;28;20678;-82
2023/08/10 12:31:25;;;;;;;1.65;1.55;;;;;;;;;;5015493;28;20235;-83
2023/08/10 12:33:55;;;;;;;1.38;1.27;;;;;;;;;;5015875;28;20282;-82
2023/08/10 12:36:22;;;;;;;2.35;2.15;;;;;;;;;;5015029;28;20235;-83
2023/08/10 12:38:50;;;;;;;2.17;1.60;;;;;;;;;;5015268;28;20211;-83
2023/08/10 12:41:17;;;;;;;1.55;1.45;;;;;;;;;;5015533;28;20212;-83
2023/08/10 12:43:45;;;;;;;1.30;1.20;;;;;;;;;;5015362;28;20317;-82
2023/08/10 12:46:12;;;;;;;2.42;1.42;;;;;;;;;;5015066;28;20298;-82
2023/08/10 12:48:39;;;;;;;1.77;1.67;;;;;;;;;;5015686;28;20214;-82
2023/08/10 12:51:07;;;;;;;1.50;1.40;;;;;;;;;;5014961;28;20207;-82
2023/08/10 12:53:34;;;;;;;1.73;1.63;;;;;;;;;;5014936;28;20276;-83
2023/08/10 12:56:04;;;;;;;1.70;1.60;;;;;;;;;;5014666;28;20211;-82
2023/08/10 12:58:31;;;;;;;1.25;1.23;;;;;;;;;;5022902;28;20211;-82
2023/08/10 13:00:58;;;;;;;1.80;1.60;;;;;;;;;;5034673;28;20206;-82
2023/08/10 13:03:25;;;;;;;1.40;1.35;;;;;;;;;;5034410;28;20700;-82
2023/08/10 13:05:52;;;;;;;1.60;1.50;;;;;;;;;;5034866;28;20226;-82
2023/08/10 13:08:19;;;;;;;1.50;1.40;;;;;;;;;;5033895;28;20239;-82
2023/08/10 13:10:46;;;;;;;1.63;1.27;;;;;;;;;;5034565;28;20211;-82
2023/08/10 13:13:15;;;;;;;1.60;1.45;;;;;;;;;;5033474;28;20249;-82
2023/08/10 13:15:42;;;;;;;1.60;1.50;;;;;;;;;;5033593;28;20230;-82
2023/08/10 13:18:09;;;;;;;2.45;1.35;;;;;;;;;;5032119;28;20253;-82
2023/08/10 13:20:36;;;;;;;1.45;1.30;;;;;;;;;;5033981;28;20672;-82
2023/08/10 13:23:03;;;;;;;2.67;1.63;;;;;;;;;;5033878;28;20235;-83
2023/08/10 13:25:30;;;;;;;2.75;1.30;;;;;;;;;;5034001;28;20660;-82
2023/08/10 13:27:58;;;;;;;1.73;1.60;;;;;;;;;;5033887;28;20248;-83
2023/08/10 13:30:27;;;;;;;2.10;1.73;;;;;;;;;;5034396;28;20218;-82
2023/08/10 13:32:54;;;;;;;1.60;1.50;;;;;;;;;;5034382;28;20234;-82
2023/08/10 13:35:21;;;;;;;1.20;1.15;;;;;;;;;;5032622;28;20233;-82
2023/08/10 13:37:48;;;;;;;2.45;1.40;;;;;;;;;;5033898;28;20297;-83
2023/08/10 13:40:16;;;;;;;2.25;1.52;;;;;;;;;;5034501;28;20215;-82
2023/08/10 13:42:43;;;;;;;2.13;1.40;;;;;;;;;;5033522;28;20321;-82
2023/08/10 13:45:10;;;;;;;2.20;1.80;;;;;;;;;;5033857;28;20672;-82
2023/08/10 13:47:39;;;;;;;3.80;1.98;;;;;;;;;;5033905;28;20588;-83
2023/08/10 13:50:07;;;;;;;1.45;1.35;;;;;;;;;;5034597;28;20616;-82
2023/08/10 13:52:34;;;;;;;1.80;1.60;;;;;;;;;;5033687;28;20242;-82
2023/08/10 13:55:03;;;;;;;1.48;1.38;;;;;;;;;;5033513;28;20229;-82
2023/08/10 13:57:30;;;;;;;1.95;1.60;;;;;;;;;;5033763;28;20242;-83
2023/08/10 13:59:57;;;;;;;2.28;1.70;;;;;;;;;;5034813;28;20210;-83
2023/08/10 14:02:25;;;;;;;1.50;1.40;;;;;;;;;;5034280;28;20237;-83
2023/08/10 14:04:53;;;;;;;1.90;1.50;;;;;;;;;;5034833;28;20203;-83
2023/08/10 14:07:22;;;;;;;1.83;1.63;;;;;;;;;;5033975;28;20302;-83
2023/08/10 14:09:49;;;;;;;1.83;1.63;;;;;;;;;;5034183;28;20203;-84
2023/08/10 14:12:16;;;;;;;1.70;1.60;;;;;;;;;;5032908;28;20240;-84
2023/08/10 14:14:43;;;;;;;1.73;1.40;;;;;;;;;;5033554;28;20249;-83
2023/08/10 14:17:10;;;;;;;2.55;1.95;;;;;;;;;;5031943;28;20238;-83
2023/08/10 14:19:37;;;;;;;1.60;1.50;;;;;;;;;;5032495;28;20214;-84
2023/08/10 14:22:06;;;;;;;1.45;1.35;;;;;;;;;;5032668;28;20605;-83
2023/08/10 14:24:33;;;;;;;3.28;2.20;;;;;;;;;;5032855;28;20206;-83
2023/08/10 14:27:00;;;;;;;4.43;2.28;;;;;;;;;;5032873;28;20227;-83
2023/08/10 14:29:27;;;;;;;1.65;1.55;;;;;;;;;;5033156;28;20210;-83
2023/08/10 14:31:54;;;;;;;3.83;1.90;;;;;;;;;;5032207;28;20716;-83
2023/08/10 14:34:21;;;;;;;3.42;1.52;;;;;;;;;;5032663;28;20563;-83
2023/08/10 14:36:48;;;;;;;1.27;1.17;;;;;;;;;;5033254;28;20242;-83
2023/08/10 14:39:17;;;;;;;1.52;1.40;;;;;;;;;;5033143;28;20565;-84
2023/08/10 14:41:49;;;;;;;1.80;1.70;;;;;;;;;;5033062;28;20794;-83
2023/08/10 14:44:16;;;;;;;1.67;1.58;;;;;;;;;;5032529;28;20206;-83
2023/08/10 14:46:43;;;;;;;4.30;1.67;;;;;;;;;;5032540;28;20266;-83
2023/08/10 14:49:10;;;;;;;1.73;1.63;;;;;;;;;;5033186;28;20206;-83